CST,Max TemperatureF,Mean TemperatureF,Min TemperatureF,Max Dew PointF,MeanDew PointF,Min DewpointF,Max Humidity, Mean Humidity, Min Humidity, Max Sea Level PressureIn, Mean Sea Level PressureIn, Min Sea Level PressureIn, Max VisibilityMiles, Mean VisibilityMiles, Min VisibilityMiles, Max Wind SpeedMPH, Mean Wind SpeedMPH, Max Gust SpeedMPH,PrecipitationIn, CloudCover, Events, WindDirDegrees
2012-11-1,84,76,68,73,66,36,100,73,18,29.96,29.90,29.85,7,6,2,12,3,,0.00,5,Rain,197
2012-11-2,84,76,69,72,69,66,94,77,58,29.96,29.89,29.85,7,7,7,6,1,,0.00,7,,226
2012-11-3,80,76,71,72,69,68,89,81,65,29.96,29.89,29.84,7,7,3,0,0,,0.00,8,Rain,-1
2012-11-4,73,71,68,72,70,68,100,95,94,29.96,29.91,29.86,8,6,5,9,2,,3.07,8,Rain,345
2012-11-5,86,78,69,72,68,63,94,72,45,29.92,29.87,29.82,8,8,7,6,1,,0.00,6,,223
2012-11-6,87,78,69,73,68,66,88,67,49,29.93,29.87,29.82,7,7,7,12,3,,0.00,3,,234
2012-11-7,86,77,68,72,69,64,89,71,48,29.93,29.87,29.81,7,7,6,9,2,,0.00,2,,221
2012-11-8,84,76,69,73,71,68,94,75,62,29.94,29.88,29.82,8,7,6,12,2,,0.00,4,,207
2012-11-9,84,76,68,73,70,64,94,75,58,29.92,29.85,29.79,7,6,5,7,1,,0.00,3,,225
2012-11-10,84,76,68,73,70,64,94,74,61,29.95,29.87,29.81,7,6,5,9,2,,0.00,4,,217
2012-11-11,84,76,69,72,69,66,94,71,58,29.94,29.89,29.82,7,6,5,12,3,,0.00,4,,223
2012-11-12,84,74,64,72,68,63,94,73,58,29.94,29.88,29.82,7,6,5,12,3,,0.00,3,,232
2012-11-13,84,76,68,72,69,64,88,74,62,29.94,29.86,29.79,7,5,4,12,2,,0.00,0,,230
2012-11-14,86,77,68,72,70,64,88,74,62,30.00,29.93,29.86,6,5,5,12,3,,0.00,3,,235
2012-11-15,84,78,73,73,71,68,94,75,62,29.98,29.91,29.85,5,4,4,12,3,,0.00,2,,232
2012-11-16,86,80,73,73,70,66,83,73,66,29.96,29.90,29.85,5,4,3,8,2,,0.00,3,,229
2012-11-17,82,76,71,72,70,68,94,75,65,30.01,29.95,29.89,5,4,3,12,4,,0.00,2,,227
2012-11-18,82,74,66,72,68,64,94,73,58,30.00,29.94,29.89,8,7,5,9,3,,0.00,0,,253
2012-11-19,84,76,68,73,68,36,94,72,20,29.96,29.90,29.84,6,5,3,12,3,,0.00,2,,204
2012-11-20,84,76,68,72,69,64,88,73,62,29.95,29.88,29.82,5,5,3,12,4,,0.00,2,,195
2012-11-21,87,78,69,72,70,66,88,73,58,29.98,29.91,29.84,5,5,5,12,4,,0.00,4,,220
2012-11-22,84,75,66,72,68,63,94,71,54,29.98,29.91,29.83,5,5,5,12,4,,0.00,3,,235
2012-11-23,84,74,64,72,68,64,100,75,54,29.97,29.91,29.84,8,6,5,10,3,,0.00,3,,234
2012-11-24,84,76,68,72,69,64,94,74,54,29.97,29.90,29.84,6,6,6,8,3,,0.00,6,,202
2012-11-25,82,75,68,70,68,66,94,75,61,29.95,29.89,29.82,8,7,6,13,4,,0.00,5,,205
2012-11-26,80,74,68,72,67,64,89,79,65,29.98,29.94,29.91,6,6,6,14,3,,0.00,6,,132
2012-11-27,82,75,68,66,66,64,88,67,54,30.03,29.95,29.88,7,7,7,12,3,,0.00,1,,215
2012-11-28,84,76,68,72,68,64,88,71,62,30.06,29.97,29.92,7,6,3,12,3,,0.00,0,,225
2012-11-29,82,75,68,73,69,64,94,74,62,29.98,29.92,29.85,6,4,3,12,3,,0.00,2,,227
2012-11-30,84,76,68,70,67,63,83,72,58,30.01,29.93,29.88,7,6,5,8,2,,0.00,4,,236